sensor_id;sensor_type;location;lat;lon;timestamp;temperature;humidity
7822;DHT22;3956;50.558;9.678;2023-06-05T00:00:11;13.00;1.00
7822;DHT22;3956;50.558;9.678;2023-06-05T00:02:41;13.00;1.00
7822;DHT22;3956;50.558;9.678;2023-06-05T00:05:09;13.00;1.00
7822;DHT22;3956;50.558;9.678;2023-06-05T00:07:41;13.00;1.00
7822;DHT22;3956;50.558;9.678;2023-06-05T00:10:09;13.00;1.00
7822;DHT22;3956;50.558;9.678;2023-06-05T00:12:38;13.00;1.00
7822;DHT22;3956;50.558;9.678;2023-06-05T00:15:09;12.90;1.00
7822;DHT22;3956;50.558;9.678;2023-06-05T00:17:37;13.00;1.00
7822;DHT22;3956;50.558;9.678;2023-06-05T00:20:06;12.20;1.00
7822;DHT22;3956;50.558;9.678;2023-06-05T00:22:41;12.40;1.00
7822;DHT22;3956;50.558;9.678;2023-06-05T00:25:11;12.40;1.00
7822;DHT22;3956;50.558;9.678;2023-06-05T00:27:39;12.40;1.00
7822;DHT22;3956;50.558;9.678;2023-06-05T00:30:08;12.00;1.00
7822;DHT22;3956;50.558;9.678;2023-06-05T00:32:37;11.70;1.00
7822;DHT22;3956;50.558;9.678;2023-06-05T00:35:06;11.60;1.00
7822;DHT22;3956;50.558;9.678;2023-06-05T00:37:35;11.70;1.00
7822;DHT22;3956;50.558;9.678;2023-06-05T00:40:06;11.70;1.00
7822;DHT22;3956;50.558;9.678;2023-06-05T00:42:35;11.70;1.00
7822;DHT22;3956;50.558;9.678;2023-06-05T00:45:05;11.60;1.00
7822;DHT22;3956;50.558;9.678;2023-06-05T00:47:34;11.40;1.00
7822;DHT22;3956;50.558;9.678;2023-06-05T00:50:03;11.40;1.00
7822;DHT22;3956;50.558;9.678;2023-06-05T00:52:32;11.40;1.00
7822;DHT22;3956;50.558;9.678;2023-06-05T00:57:31;11.50;1.00
7822;DHT22;3956;50.558;9.678;2023-06-05T01:00:01;11.50;1.00
7822;DHT22;3956;50.558;9.678;2023-06-05T01:02:30;11.30;1.00
7822;DHT22;3956;50.558;9.678;2023-06-05T01:05:01;11.20;1.00
7822;DHT22;3956;50.558;9.678;2023-06-05T01:07:31;11.10;1.00
7822;DHT22;3956;50.558;9.678;2023-06-05T01:10:01;11.00;1.00
7822;DHT22;3956;50.558;9.678;2023-06-05T01:12:36;10.80;1.00
7822;DHT22;3956;50.558;9.678;2023-06-05T01:15:07;10.90;1.00
7822;DHT22;3956;50.558;9.678;2023-06-05T01:17:36;10.90;1.00
7822;DHT22;3956;50.558;9.678;2023-06-05T01:20:06;10.90;1.00
7822;DHT22;3956;50.558;9.678;2023-06-05T01:22:36;10.80;1.00
7822;DHT22;3956;50.558;9.678;2023-06-05T01:25:08;10.80;1.00
7822;DHT22;3956;50.558;9.678;2023-06-05T01:27:48;10.90;1.00
7822;DHT22;3956;50.558;9.678;2023-06-05T01:30:22;10.90;1.00
7822;DHT22;3956;50.558;9.678;2023-06-05T01:32:58;10.80;1.00
7822;DHT22;3956;50.558;9.678;2023-06-05T01:35:31;10.80;1.00
7822;DHT22;3956;50.558;9.678;2023-06-05T01:38:02;10.80;1.00
7822;DHT22;3956;50.558;9.678;2023-06-05T01:40:35;10.90;1.00
7822;DHT22;3956;50.558;9.678;2023-06-05T01:43:04;10.90;1.00
7822;DHT22;3956;50.558;9.678;2023-06-05T01:45:35;11.00;1.00
7822;DHT22;3956;50.558;9.678;2023-06-05T01:48:05;11.00;1.00
7822;DHT22;3956;50.558;9.678;2023-06-05T01:50:39;11.00;1.00
7822;DHT22;3956;50.558;9.678;2023-06-05T01:53:09;10.90;1.00
7822;DHT22;3956;50.558;9.678;2023-06-05T01:55:40;10.60;1.00
7822;DHT22;3956;50.558;9.678;2023-06-05T01:58:08;10.60;1.00
7822;DHT22;3956;50.558;9.678;2023-06-05T02:00:37;10.70;1.00
7822;DHT22;3956;50.558;9.678;2023-06-05T02:03:06;10.70;1.00
7822;DHT22;3956;50.558;9.678;2023-06-05T02:05:35;10.80;1.00
7822;DHT22;3956;50.558;9.678;2023-06-05T02:08:04;10.70;1.00
7822;DHT22;3956;50.558;9.678;2023-06-05T02:10:36;10.40;1.00
7822;DHT22;3956;50.558;9.678;2023-06-05T02:13:09;10.30;1.00
7822;DHT22;3956;50.558;9.678;2023-06-05T02:15:39;10.30;1.00
7822;DHT22;3956;50.558;9.678;2023-06-05T02:18:08;10.30;1.00
7822;DHT22;3956;50.558;9.678;2023-06-05T02:20:36;10.30;1.00
7822;DHT22;3956;50.558;9.678;2023-06-05T02:23:05;10.30;1.00
7822;DHT22;3956;50.558;9.678;2023-06-05T02:25:35;10.30;1.00
7822;DHT22;3956;50.558;9.678;2023-06-05T02:28:06;10.30;1.00
7822;DHT22;3956;50.558;9.678;2023-06-05T02:30:40;10.30;1.00
7822;DHT22;3956;50.558;9.678;2023-06-05T02:33:13;10.10;1.00
7822;DHT22;3956;50.558;9.678;2023-06-05T02:35:42;10.00;1.00
7822;DHT22;3956;50.558;9.678;2023-06-05T02:38:12;10.00;1.00
7822;DHT22;3956;50.558;9.678;2023-06-05T02:40:42;9.90;1.00
7822;DHT22;3956;50.558;9.678;2023-06-05T02:43:11;9.60;1.00
7822;DHT22;3956;50.558;9.678;2023-06-05T02:45:44;9.60;1.00
7822;DHT22;3956;50.558;9.678;2023-06-05T02:48:17;9.70;1.00
7822;DHT22;3956;50.558;9.678;2023-06-05T02:50:46;9.60;1.00
7822;DHT22;3956;50.558;9.678;2023-06-05T02:53:19;9.60;1.00
7822;DHT22;3956;50.558;9.678;2023-06-05T02:55:52;9.60;1.00
7822;DHT22;3956;50.558;9.678;2023-06-05T02:58:24;9.60;1.00
7822;DHT22;3956;50.558;9.678;2023-06-05T03:01:02;9.60;1.00
7822;DHT22;3956;50.558;9.678;2023-06-05T03:03:50;9.60;1.00
7822;DHT22;3956;50.558;9.678;2023-06-05T03:06:22;9.50;1.00
7822;DHT22;3956;50.558;9.678;2023-06-05T03:08:58;9.50;1.00
7822;DHT22;3956;50.558;9.678;2023-06-05T03:11:31;9.30;1.00
7822;DHT22;3956;50.558;9.678;2023-06-05T03:14:03;9.40;1.00
7822;DHT22;3956;50.558;9.678;2023-06-05T03:16:39;9.40;1.00
7822;DHT22;3956;50.558;9.678;2023-06-05T03:19:12;9.40;1.00
7822;DHT22;3956;50.558;9.678;2023-06-05T03:21:49;9.30;1.00
7822;DHT22;3956;50.558;9.678;2023-06-05T03:24:19;9.10;1.00
7822;DHT22;3956;50.558;9.678;2023-06-05T03:27:03;9.10;1.00
7822;DHT22;3956;50.558;9.678;2023-06-05T03:29:31;9.10;1.00
7822;DHT22;3956;50.558;9.678;2023-06-05T03:32:01;9.10;1.00
7822;DHT22;3956;50.558;9.678;2023-06-05T03:34:33;9.10;1.00
7822;DHT22;3956;50.558;9.678;2023-06-05T03:37:03;9.20;1.00
7822;DHT22;3956;50.558;9.678;2023-06-05T03:39:31;9.00;1.00
7822;DHT22;3956;50.558;9.678;2023-06-05T03:42:00;9.10;1.00
7822;DHT22;3956;50.558;9.678;2023-06-05T03:44:29;9.10;1.00
7822;DHT22;3956;50.558;9.678;2023-06-05T03:46:58;9.10;1.00
7822;DHT22;3956;50.558;9.678;2023-06-05T03:49:30;9.00;1.00
7822;DHT22;3956;50.558;9.678;2023-06-05T03:51:59;9.00;1.00
7822;DHT22;3956;50.558;9.678;2023-06-05T03:54:29;9.00;1.00
7822;DHT22;3956;50.558;9.678;2023-06-05T03:56:59;9.10;1.00
7822;DHT22;3956;50.558;9.678;2023-06-05T03:59:29;9.00;1.00
7822;DHT22;3956;50.558;9.678;2023-06-05T04:01:57;9.10;1.00
7822;DHT22;3956;50.558;9.678;2023-06-05T04:04:26;9.00;1.00
7822;DHT22;3956;50.558;9.678;2023-06-05T04:06:56;8.90;1.00
7822;DHT22;3956;50.558;9.678;2023-06-05T04:09:26;8.90;1.00
7822;DHT22;3956;50.558;9.678;2023-06-05T04:11:58;9.00;1.00
7822;DHT22;3956;50.558;9.678;2023-06-05T04:14:26;9.20;1.00
7822;DHT22;3956;50.558;9.678;2023-06-05T04:16:54;9.10;1.00
7822;DHT22;3956;50.558;9.678;2023-06-05T04:19:23;9.10;1.00
7822;DHT22;3956;50.558;9.678;2023-06-05T04:21:51;9.10;1.00
7822;DHT22;3956;50.558;9.678;2023-06-05T04:24:23;9.20;1.00
7822;DHT22;3956;50.558;9.678;2023-06-05T04:26:53;9.20;1.00
7822;DHT22;3956;50.558;9.678;2023-06-05T04:29:25;9.30;1.00
7822;DHT22;3956;50.558;9.678;2023-06-05T04:31:54;9.20;1.00
7822;DHT22;3956;50.558;9.678;2023-06-05T04:34:25;9.50;1.00
7822;DHT22;3956;50.558;9.678;2023-06-05T04:36:53;9.60;1.00
7822;DHT22;3956;50.558;9.678;2023-06-05T04:39:22;9.50;1.00
7822;DHT22;3956;50.558;9.678;2023-06-05T04:41:59;9.50;1.00
7822;DHT22;3956;50.558;9.678;2023-06-05T04:44:43;9.70;1.00
7822;DHT22;3956;50.558;9.678;2023-06-05T04:47:11;9.60;1.00
7822;DHT22;3956;50.558;9.678;2023-06-05T04:49:39;9.60;1.00
7822;DHT22;3956;50.558;9.678;2023-06-05T04:52:08;9.80;1.00
7822;DHT22;3956;50.558;9.678;2023-06-05T04:54:37;9.60;1.00
7822;DHT22;3956;50.558;9.678;2023-06-05T04:57:06;9.80;1.00
7822;DHT22;3956;50.558;9.678;2023-06-05T04:59:36;9.90;1.00
7822;DHT22;3956;50.558;9.678;2023-06-05T05:02:10;9.80;1.00
7822;DHT22;3956;50.558;9.678;2023-06-05T05:04:38;9.90;1.00
7822;DHT22;3956;50.558;9.678;2023-06-05T05:07:42;10.00;1.00
7822;DHT22;3956;50.558;9.678;2023-06-05T05:11:00;10.10;1.00
7822;DHT22;3956;50.558;9.678;2023-06-05T05:13:31;10.30;1.00
7822;DHT22;3956;50.558;9.678;2023-06-05T05:16:00;10.20;1.00
7822;DHT22;3956;50.558;9.678;2023-06-05T05:18:28;10.30;1.00
7822;DHT22;3956;50.558;9.678;2023-06-05T05:20:59;10.50;1.00
7822;DHT22;3956;50.558;9.678;2023-06-05T05:23:36;10.70;1.00
7822;DHT22;3956;50.558;9.678;2023-06-05T05:26:07;10.80;1.00
7822;DHT22;3956;50.558;9.678;2023-06-05T05:28:36;10.90;1.00
7822;DHT22;3956;50.558;9.678;2023-06-05T05:31:07;10.90;1.00
7822;DHT22;3956;50.558;9.678;2023-06-05T05:33:38;11.00;1.00
7822;DHT22;3956;50.558;9.678;2023-06-05T05:36:34;11.00;1.00
7822;DHT22;3956;50.558;9.678;2023-06-05T05:39:05;11.10;1.00
7822;DHT22;3956;50.558;9.678;2023-06-05T05:42:13;11.30;1.00
7822;DHT22;3956;50.558;9.678;2023-06-05T05:44:45;11.30;1.00
7822;DHT22;3956;50.558;9.678;2023-06-05T05:47:14;11.30;1.00
7822;DHT22;3956;50.558;9.678;2023-06-05T05:49:42;11.40;1.00
7822;DHT22;3956;50.558;9.678;2023-06-05T05:52:10;11.60;1.00
7822;DHT22;3956;50.558;9.678;2023-06-05T05:54:39;11.60;1.00
7822;DHT22;3956;50.558;9.678;2023-06-05T05:57:08;11.50;1.00
7822;DHT22;3956;50.558;9.678;2023-06-05T05:59:37;11.60;1.00
7822;DHT22;3956;50.558;9.678;2023-06-05T06:02:08;11.60;1.00
7822;DHT22;3956;50.558;9.678;2023-06-05T06:04:36;11.60;1.00
7822;DHT22;3956;50.558;9.678;2023-06-05T06:07:25;11.70;1.00
7822;DHT22;3956;50.558;9.678;2023-06-05T06:10:08;11.90;1.00
7822;DHT22;3956;50.558;9.678;2023-06-05T06:13:14;12.00;1.00
7822;DHT22;3956;50.558;9.678;2023-06-05T06:15:42;12.00;1.00
7822;DHT22;3956;50.558;9.678;2023-06-05T06:18:23;12.20;1.00
7822;DHT22;3956;50.558;9.678;2023-06-05T06:21:14;12.40;1.00
7822;DHT22;3956;50.558;9.678;2023-06-05T06:23:42;12.50;1.00
7822;DHT22;3956;50.558;9.678;2023-06-05T06:26:12;12.50;1.00
7822;DHT22;3956;50.558;9.678;2023-06-05T06:28:56;12.60;1.00
7822;DHT22;3956;50.558;9.678;2023-06-05T06:31:27;12.80;1.00
7822;DHT22;3956;50.558;9.678;2023-06-05T06:33:57;13.20;1.00
7822;DHT22;3956;50.558;9.678;2023-06-05T06:36:26;13.50;1.00
7822;DHT22;3956;50.558;9.678;2023-06-05T06:39:14;13.60;1.00
7822;DHT22;3956;50.558;9.678;2023-06-05T06:42:32;14.00;1.00
7822;DHT22;3956;50.558;9.678;2023-06-05T06:45:08;14.60;1.00
7822;DHT22;3956;50.558;9.678;2023-06-05T06:47:40;16.80;1.00
7822;DHT22;3956;50.558;9.678;2023-06-05T06:50:32;17.90;1.00
7822;DHT22;3956;50.558;9.678;2023-06-05T06:53:01;18.60;1.00
7822;DHT22;3956;50.558;9.678;2023-06-05T06:55:29;18.40;1.00
7822;DHT22;3956;50.558;9.678;2023-06-05T06:57:58;19.20;1.00
7822;DHT22;3956;50.558;9.678;2023-06-05T07:00:45;19.40;1.00
7822;DHT22;3956;50.558;9.678;2023-06-05T07:03:25;19.60;1.00
7822;DHT22;3956;50.558;9.678;2023-06-05T07:06:21;20.00;1.00
7822;DHT22;3956;50.558;9.678;2023-06-05T07:08:51;20.20;1.00
7822;DHT22;3956;50.558;9.678;2023-06-05T07:11:21;20.50;1.00
7822;DHT22;3956;50.558;9.678;2023-06-05T07:13:49;21.30;1.00
7822;DHT22;3956;50.558;9.678;2023-06-05T07:20:30;21.40;1.00
7822;DHT22;3956;50.558;9.678;2023-06-05T07:23:06;21.90;1.00
7822;DHT22;3956;50.558;9.678;2023-06-05T07:25:38;22.50;1.00
7822;DHT22;3956;50.558;9.678;2023-06-05T07:28:09;23.30;1.00
7822;DHT22;3956;50.558;9.678;2023-06-05T07:31:12;23.30;1.00
7822;DHT22;3956;50.558;9.678;2023-06-05T07:34:16;23.10;1.00
7822;DHT22;3956;50.558;9.678;2023-06-05T07:37:10;24.30;1.00
7822;DHT22;3956;50.558;9.678;2023-06-05T07:39:39;25.10;1.00
7822;DHT22;3956;50.558;9.678;2023-06-05T07:42:30;24.70;1.00
7822;DHT22;3956;50.558;9.678;2023-06-05T07:45:00;25.60;1.00
7822;DHT22;3956;50.558;9.678;2023-06-05T07:47:31;25.60;1.00
7822;DHT22;3956;50.558;9.678;2023-06-05T07:50:03;26.00;1.00
7822;DHT22;3956;50.558;9.678;2023-06-05T07:52:56;26.30;1.00
7822;DHT22;3956;50.558;9.678;2023-06-05T07:55:27;27.60;1.00
7822;DHT22;3956;50.558;9.678;2023-06-05T07:58:34;27.00;1.00
7822;DHT22;3956;50.558;9.678;2023-06-05T08:01:02;26.30;1.00
7822;DHT22;3956;50.558;9.678;2023-06-05T08:16:24;27.20;1.00
7822;DHT22;3956;50.558;9.678;2023-06-05T08:18:55;26.70;1.00
7822;DHT22;3956;50.558;9.678;2023-06-05T08:21:56;27.80;1.00
7822;DHT22;3956;50.558;9.678;2023-06-05T08:24:31;26.20;1.00
7822;DHT22;3956;50.558;9.678;2023-06-05T08:26:59;26.40;1.00
7822;DHT22;3956;50.558;9.678;2023-06-05T08:29:28;27.50;1.00
7822;DHT22;3956;50.558;9.678;2023-06-05T08:31:56;26.60;1.00
7822;DHT22;3956;50.558;9.678;2023-06-05T08:34:25;27.80;1.00
7822;DHT22;3956;50.558;9.678;2023-06-05T08:36:53;28.20;1.00
7822;DHT22;3956;50.558;9.678;2023-06-05T08:39:30;28.00;1.00
7822;DHT22;3956;50.558;9.678;2023-06-05T08:42:00;28.40;1.00
7822;DHT22;3956;50.558;9.678;2023-06-05T08:44:37;28.50;1.00
7822;DHT22;3956;50.558;9.678;2023-06-05T08:47:30;28.90;1.00
7822;DHT22;3956;50.558;9.678;2023-06-05T08:50:05;29.10;1.00
7822;DHT22;3956;50.558;9.678;2023-06-05T08:52:37;28.50;1.00
7822;DHT22;3956;50.558;9.678;2023-06-05T08:55:07;26.60;1.00
7822;DHT22;3956;50.558;9.678;2023-06-05T08:57:38;28.90;1.00
7822;DHT22;3956;50.558;9.678;2023-06-05T09:00:13;29.20;1.00
7822;DHT22;3956;50.558;9.678;2023-06-05T09:02:43;29.10;1.00
7822;DHT22;3956;50.558;9.678;2023-06-05T09:05:15;28.40;1.00
7822;DHT22;3956;50.558;9.678;2023-06-05T09:07:47;26.10;1.00
7822;DHT22;3956;50.558;9.678;2023-06-05T09:10:53;25.70;1.00
7822;DHT22;3956;50.558;9.678;2023-06-05T09:13:49;24.60;1.00
7822;DHT22;3956;50.558;9.678;2023-06-05T09:16:56;24.40;1.00
7822;DHT22;3956;50.558;9.678;2023-06-05T09:19:44;25.00;1.00
7822;DHT22;3956;50.558;9.678;2023-06-05T09:22:48;25.30;1.00
7822;DHT22;3956;50.558;9.678;2023-06-05T09:25:17;26.00;1.00
7822;DHT22;3956;50.558;9.678;2023-06-05T09:28:15;27.90;1.00
7822;DHT22;3956;50.558;9.678;2023-06-05T09:30:56;24.70;1.00
7822;DHT22;3956;50.558;9.678;2023-06-05T09:33:29;27.00;1.00
7822;DHT22;3956;50.558;9.678;2023-06-05T09:36:06;26.60;1.00
7822;DHT22;3956;50.558;9.678;2023-06-05T09:39:14;26.70;1.00
7822;DHT22;3956;50.558;9.678;2023-06-05T09:41:43;25.00;1.00
7822;DHT22;3956;50.558;9.678;2023-06-05T09:44:18;24.50;1.00
7822;DHT22;3956;50.558;9.678;2023-06-05T09:46:53;24.70;1.00
7822;DHT22;3956;50.558;9.678;2023-06-05T09:49:32;23.60;1.00
7822;DHT22;3956;50.558;9.678;2023-06-05T09:52:57;24.80;1.00
7822;DHT22;3956;50.558;9.678;2023-06-05T09:55:26;23.30;1.00
7822;DHT22;3956;50.558;9.678;2023-06-05T09:58:06;24.90;1.00
7822;DHT22;3956;50.558;9.678;2023-06-05T10:00:51;24.30;1.00
7822;DHT22;3956;50.558;9.678;2023-06-05T10:03:45;23.70;1.00
7822;DHT22;3956;50.558;9.678;2023-06-05T10:06:19;23.90;1.00
7822;DHT22;3956;50.558;9.678;2023-06-05T10:08:52;23.30;1.00
7822;DHT22;3956;50.558;9.678;2023-06-05T10:11:48;22.80;1.00
7822;DHT22;3956;50.558;9.678;2023-06-05T10:14:47;22.80;1.00
7822;DHT22;3956;50.558;9.678;2023-06-05T10:17:36;23.80;1.00
7822;DHT22;3956;50.558;9.678;2023-06-05T10:20:09;24.30;1.00
7822;DHT22;3956;50.558;9.678;2023-06-05T10:23:08;23.90;1.00
7822;DHT22;3956;50.558;9.678;2023-06-05T10:25:47;23.30;1.00
7822;DHT22;3956;50.558;9.678;2023-06-05T10:28:40;23.10;1.00
7822;DHT22;3956;50.558;9.678;2023-06-05T10:31:20;23.10;1.00
7822;DHT22;3956;50.558;9.678;2023-06-05T10:37:15;24.30;1.00
7822;DHT22;3956;50.558;9.678;2023-06-05T10:40:22;24.20;1.00
7822;DHT22;3956;50.558;9.678;2023-06-05T10:43:28;23.50;1.00
7822;DHT22;3956;50.558;9.678;2023-06-05T10:46:01;24.30;1.00
7822;DHT22;3956;50.558;9.678;2023-06-05T10:49:10;23.50;1.00
7822;DHT22;3956;50.558;9.678;2023-06-05T10:51:40;23.10;1.00
7822;DHT22;3956;50.558;9.678;2023-06-05T10:54:13;23.90;1.00
7822;DHT22;3956;50.558;9.678;2023-06-05T10:57:01;24.00;1.00
7822;DHT22;3956;50.558;9.678;2023-06-05T10:59:35;24.50;1.00
7822;DHT22;3956;50.558;9.678;2023-06-05T11:02:26;24.50;1.00
7822;DHT22;3956;50.558;9.678;2023-06-05T11:05:26;23.60;1.00
7822;DHT22;3956;50.558;9.678;2023-06-05T11:08:40;23.10;1.00
7822;DHT22;3956;50.558;9.678;2023-06-05T11:12:37;23.30;1.00
7822;DHT22;3956;50.558;9.678;2023-06-05T11:15:41;24.50;1.00
7822;DHT22;3956;50.558;9.678;2023-06-05T11:18:32;24.00;1.00
7822;DHT22;3956;50.558;9.678;2023-06-05T11:21:04;24.60;1.00
7822;DHT22;3956;50.558;9.678;2023-06-05T11:23:35;24.20;1.00
7822;DHT22;3956;50.558;9.678;2023-06-05T11:26:40;24.00;1.00
7822;DHT22;3956;50.558;9.678;2023-06-05T11:29:14;24.00;1.00
7822;DHT22;3956;50.558;9.678;2023-06-05T11:31:45;24.30;1.00
7822;DHT22;3956;50.558;9.678;2023-06-05T11:34:14;24.50;1.00
7822;DHT22;3956;50.558;9.678;2023-06-05T11:36:45;24.20;1.00
7822;DHT22;3956;50.558;9.678;2023-06-05T11:39:17;24.50;1.00
7822;DHT22;3956;50.558;9.678;2023-06-05T11:41:47;24.50;1.00
7822;DHT22;3956;50.558;9.678;2023-06-05T11:44:34;24.00;1.00
7822;DHT22;3956;50.558;9.678;2023-06-05T11:47:38;24.20;1.00
7822;DHT22;3956;50.558;9.678;2023-06-05T11:50:09;24.90;1.00
7822;DHT22;3956;50.558;9.678;2023-06-05T11:52:46;24.60;1.00
7822;DHT22;3956;50.558;9.678;2023-06-05T11:55:49;24.00;1.00
7822;DHT22;3956;50.558;9.678;2023-06-05T11:58:55;23.80;1.00
7822;DHT22;3956;50.558;9.678;2023-06-05T12:02:00;23.50;1.00
7822;DHT22;3956;50.558;9.678;2023-06-05T12:04:46;23.80;1.00
7822;DHT22;3956;50.558;9.678;2023-06-05T12:11:41;24.40;1.00
7822;DHT22;3956;50.558;9.678;2023-06-05T12:14:58;24.40;1.00
7822;DHT22;3956;50.558;9.678;2023-06-05T12:18:18;24.60;1.00
7822;DHT22;3956;50.558;9.678;2023-06-05T12:21:39;24.20;1.00
7822;DHT22;3956;50.558;9.678;2023-06-05T12:24:37;24.60;1.00
7822;DHT22;3956;50.558;9.678;2023-06-05T12:30:54;24.70;1.00
7822;DHT22;3956;50.558;9.678;2023-06-05T12:33:24;24.60;1.00
7822;DHT22;3956;50.558;9.678;2023-06-05T12:36:06;24.50;1.00
7822;DHT22;3956;50.558;9.678;2023-06-05T12:39:03;24.60;1.00
7822;DHT22;3956;50.558;9.678;2023-06-05T12:41:44;24.70;1.00
7822;DHT22;3956;50.558;9.678;2023-06-05T12:44:34;24.50;1.00
7822;DHT22;3956;50.558;9.678;2023-06-05T12:47:58;24.70;1.00
7822;DHT22;3956;50.558;9.678;2023-06-05T12:50:42;24.40;1.00
7822;DHT22;3956;50.558;9.678;2023-06-05T12:53:12;24.30;1.00
7822;DHT22;3956;50.558;9.678;2023-06-05T12:55:55;24.70;1.00
7822;DHT22;3956;50.558;9.678;2023-06-05T12:59:07;24.70;1.00
7822;DHT22;3956;50.558;9.678;2023-06-05T13:01:40;25.10;1.00
7822;DHT22;3956;50.558;9.678;2023-06-05T13:04:12;25.40;1.00
7822;DHT22;3956;50.558;9.678;2023-06-05T13:06:53;25.60;1.00
7822;DHT22;3956;50.558;9.678;2023-06-05T13:09:56;25.40;1.00
7822;DHT22;3956;50.558;9.678;2023-06-05T13:12:31;25.30;1.00
7822;DHT22;3956;50.558;9.678;2023-06-05T13:15:02;25.00;1.00
7822;DHT22;3956;50.558;9.678;2023-06-05T13:17:39;25.00;1.00
7822;DHT22;3956;50.558;9.678;2023-06-05T13:20:12;24.70;1.00
7822;DHT22;3956;50.558;9.678;2023-06-05T13:23:12;25.10;1.00
7822;DHT22;3956;50.558;9.678;2023-06-05T13:26:15;25.40;1.00
7822;DHT22;3956;50.558;9.678;2023-06-05T13:29:30;24.90;1.00
7822;DHT22;3956;50.558;9.678;2023-06-05T13:31:58;25.50;1.00
7822;DHT22;3956;50.558;9.678;2023-06-05T13:34:27;25.80;1.00
7822;DHT22;3956;50.558;9.678;2023-06-05T13:37:00;25.50;1.00
7822;DHT22;3956;50.558;9.678;2023-06-05T13:39:41;25.50;1.00
7822;DHT22;3956;50.558;9.678;2023-06-05T13:42:11;25.30;1.00
7822;DHT22;3956;50.558;9.678;2023-06-05T13:44:40;25.00;1.00
7822;DHT22;3956;50.558;9.678;2023-06-05T13:47:09;24.90;1.00
7822;DHT22;3956;50.558;9.678;2023-06-05T13:49:39;25.10;1.00
7822;DHT22;3956;50.558;9.678;2023-06-05T13:52:12;25.30;1.00
7822;DHT22;3956;50.558;9.678;2023-06-05T13:54:43;25.40;1.00
7822;DHT22;3956;50.558;9.678;2023-06-05T13:57:30;25.10;1.00
7822;DHT22;3956;50.558;9.678;2023-06-05T14:00:12;25.10;1.00
7822;DHT22;3956;50.558;9.678;2023-06-05T14:03:05;25.60;1.00
7822;DHT22;3956;50.558;9.678;2023-06-05T14:05:44;24.90;1.00
7822;DHT22;3956;50.558;9.678;2023-06-05T14:08:19;25.40;1.00
7822;DHT22;3956;50.558;9.678;2023-06-05T14:11:12;25.40;1.00
7822;DHT22;3956;50.558;9.678;2023-06-05T14:14:00;25.60;1.00
7822;DHT22;3956;50.558;9.678;2023-06-05T14:16:31;25.50;1.00
7822;DHT22;3956;50.558;9.678;2023-06-05T14:19:05;25.40;1.00
7822;DHT22;3956;50.558;9.678;2023-06-05T14:21:34;25.40;1.00
7822;DHT22;3956;50.558;9.678;2023-06-05T14:24:04;25.60;1.00
7822;DHT22;3956;50.558;9.678;2023-06-05T14:26:34;25.60;1.00
7822;DHT22;3956;50.558;9.678;2023-06-05T14:29:06;24.60;1.00
7822;DHT22;3956;50.558;9.678;2023-06-05T14:31:38;25.20;1.00
7822;DHT22;3956;50.558;9.678;2023-06-05T14:34:17;25.60;1.00
7822;DHT22;3956;50.558;9.678;2023-06-05T14:36:50;25.70;1.00
7822;DHT22;3956;50.558;9.678;2023-06-05T14:39:34;25.70;1.00
7822;DHT22;3956;50.558;9.678;2023-06-05T14:42:10;25.60;1.00
7822;DHT22;3956;50.558;9.678;2023-06-05T14:44:42;25.40;1.00
7822;DHT22;3956;50.558;9.678;2023-06-05T14:47:11;25.40;1.00
7822;DHT22;3956;50.558;9.678;2023-06-05T14:49:44;25.50;1.00
7822;DHT22;3956;50.558;9.678;2023-06-05T14:52:18;25.60;1.00
7822;DHT22;3956;50.558;9.678;2023-06-05T14:54:57;25.20;1.00
7822;DHT22;3956;50.558;9.678;2023-06-05T14:57:32;25.10;1.00
7822;DHT22;3956;50.558;9.678;2023-06-05T15:00:04;25.20;1.00
7822;DHT22;3956;50.558;9.678;2023-06-05T15:02:35;25.10;1.00
7822;DHT22;3956;50.558;9.678;2023-06-05T15:05:17;24.50;1.00
7822;DHT22;3956;50.558;9.678;2023-06-05T15:07:50;24.80;1.00
7822;DHT22;3956;50.558;9.678;2023-06-05T15:10:28;24.70;1.00
7822;DHT22;3956;50.558;9.678;2023-06-05T15:13:02;24.40;1.00
7822;DHT22;3956;50.558;9.678;2023-06-05T15:15:35;24.80;1.00
7822;DHT22;3956;50.558;9.678;2023-06-05T15:18:46;25.10;1.00
7822;DHT22;3956;50.558;9.678;2023-06-05T15:21:27;24.40;1.00
7822;DHT22;3956;50.558;9.678;2023-06-05T15:24:06;24.50;1.00
7822;DHT22;3956;50.558;9.678;2023-06-05T15:26:54;24.10;1.00
7822;DHT22;3956;50.558;9.678;2023-06-05T15:29:23;25.00;1.00
7822;DHT22;3956;50.558;9.678;2023-06-05T15:31:58;25.30;1.00
7822;DHT22;3956;50.558;9.678;2023-06-05T15:34:53;25.10;1.00
7822;DHT22;3956;50.558;9.678;2023-06-05T15:38:35;25.20;1.00
7822;DHT22;3956;50.558;9.678;2023-06-05T15:41:21;25.10;1.00
7822;DHT22;3956;50.558;9.678;2023-06-05T15:44:21;25.00;1.00
7822;DHT22;3956;50.558;9.678;2023-06-05T15:46:53;25.00;1.00
7822;DHT22;3956;50.558;9.678;2023-06-05T15:49:26;24.70;1.00
7822;DHT22;3956;50.558;9.678;2023-06-05T15:52:03;25.10;1.00
7822;DHT22;3956;50.558;9.678;2023-06-05T15:55:04;24.90;1.00
7822;DHT22;3956;50.558;9.678;2023-06-05T15:57:51;24.70;1.00
7822;DHT22;3956;50.558;9.678;2023-06-05T16:00:22;24.50;1.00
7822;DHT22;3956;50.558;9.678;2023-06-05T16:02:54;24.40;1.00
7822;DHT22;3956;50.558;9.678;2023-06-05T16:05:25;24.60;1.00
7822;DHT22;3956;50.558;9.678;2023-06-05T16:07:53;24.70;1.00
7822;DHT22;3956;50.558;9.678;2023-06-05T16:10:24;24.70;1.00
7822;DHT22;3956;50.558;9.678;2023-06-05T16:13:03;24.90;1.00
7822;DHT22;3956;50.558;9.678;2023-06-05T16:16:29;24.90;1.00
7822;DHT22;3956;50.558;9.678;2023-06-05T16:19:00;24.10;1.00
7822;DHT22;3956;50.558;9.678;2023-06-05T16:21:31;24.10;1.00
7822;DHT22;3956;50.558;9.678;2023-06-05T16:24:14;24.40;1.00
7822;DHT22;3956;50.558;9.678;2023-06-05T16:26:53;24.60;1.00
7822;DHT22;3956;50.558;9.678;2023-06-05T16:29:28;24.30;1.00
7822;DHT22;3956;50.558;9.678;2023-06-05T16:32:15;24.60;1.00
7822;DHT22;3956;50.558;9.678;2023-06-05T16:34:46;24.30;1.00
7822;DHT22;3956;50.558;9.678;2023-06-05T16:40:54;23.90;1.00
7822;DHT22;3956;50.558;9.678;2023-06-05T16:43:35;23.60;1.00
7822;DHT22;3956;50.558;9.678;2023-06-05T16:46:28;24.00;1.00
7822;DHT22;3956;50.558;9.678;2023-06-05T16:49:04;24.20;1.00
7822;DHT22;3956;50.558;9.678;2023-06-05T16:51:33;24.30;1.00
7822;DHT22;3956;50.558;9.678;2023-06-05T16:54:15;24.30;1.00
7822;DHT22;3956;50.558;9.678;2023-06-05T16:57:16;24.00;1.00
7822;DHT22;3956;50.558;9.678;2023-06-05T16:59:50;24.10;1.00
7822;DHT22;3956;50.558;9.678;2023-06-05T17:02:28;24.20;1.00
7822;DHT22;3956;50.558;9.678;2023-06-05T17:05:13;24.10;1.00
7822;DHT22;3956;50.558;9.678;2023-06-05T17:07:43;23.90;1.00
7822;DHT22;3956;50.558;9.678;2023-06-05T17:10:27;24.00;1.00
7822;DHT22;3956;50.558;9.678;2023-06-05T17:13:00;23.80;1.00
7822;DHT22;3956;50.558;9.678;2023-06-05T17:15:30;23.70;1.00
7822;DHT22;3956;50.558;9.678;2023-06-05T17:18:02;23.70;1.00
7822;DHT22;3956;50.558;9.678;2023-06-05T17:23:00;23.40;1.00
7822;DHT22;3956;50.558;9.678;2023-06-05T17:25:30;23.70;1.00
7822;DHT22;3956;50.558;9.678;2023-06-05T17:28:03;23.70;1.00
7822;DHT22;3956;50.558;9.678;2023-06-05T17:30:45;23.60;1.00
7822;DHT22;3956;50.558;9.678;2023-06-05T17:34:03;23.60;1.00
7822;DHT22;3956;50.558;9.678;2023-06-05T17:37:10;23.40;1.00
7822;DHT22;3956;50.558;9.678;2023-06-05T17:40:11;23.20;1.00
7822;DHT22;3956;50.558;9.678;2023-06-05T17:42:41;23.40;1.00
7822;DHT22;3956;50.558;9.678;2023-06-05T17:45:12;23.20;1.00
7822;DHT22;3956;50.558;9.678;2023-06-05T17:47:45;23.20;1.00
7822;DHT22;3956;50.558;9.678;2023-06-05T17:50:15;23.20;1.00
7822;DHT22;3956;50.558;9.678;2023-06-05T17:52:53;23.10;1.00
7822;DHT22;3956;50.558;9.678;2023-06-05T17:55:32;22.90;1.00
7822;DHT22;3956;50.558;9.678;2023-06-05T17:58:01;22.80;1.00
7822;DHT22;3956;50.558;9.678;2023-06-05T18:03:13;22.70;1.00
7822;DHT22;3956;50.558;9.678;2023-06-05T18:05:59;22.70;1.00
7822;DHT22;3956;50.558;9.678;2023-06-05T18:08:39;22.60;1.00
7822;DHT22;3956;50.558;9.678;2023-06-05T18:11:21;22.70;1.00